createdAt,value
2016-09-27T00:00:20.852Z,0
2016-09-27T00:01:20.875Z,0
2016-09-27T00:02:05.980Z,0
2016-09-27T00:03:05.997Z,0
2016-09-27T00:04:20.940Z,0
2016-09-27T00:05:06.035Z,0
2016-09-27T00:06:20.987Z,0
2016-09-27T00:07:06.092Z,0
2016-09-27T00:08:06.105Z,0
2016-09-27T00:09:06.129Z,0
2016-09-27T00:11:06.169Z,0
2016-09-27T00:12:21.125Z,0
2016-09-27T00:13:21.145Z,0
2016-09-27T00:14:21.221Z,0
2016-09-27T00:15:06.263Z,0
2016-09-27T00:16:06.286Z,0
2016-09-27T00:17:21.237Z,0
2016-09-27T00:18:06.323Z,0
2016-09-27T00:19:06.407Z,0
2016-09-27T00:20:06.377Z,0
2016-09-27T00:21:06.415Z,0
2016-09-27T00:22:21.344Z,0
2016-09-27T00:23:06.497Z,0
2016-09-27T00:24:06.466Z,0
2016-09-27T00:25:06.495Z,0
2016-09-27T00:26:06.524Z,0
2016-09-27T00:27:06.581Z,0
2016-09-27T00:28:06.559Z,0
2016-09-27T00:30:06.615Z,0
2016-09-27T00:31:06.622Z,0
2016-09-27T00:33:06.671Z,0
2016-09-27T00:34:21.614Z,0
2016-09-27T00:35:06.711Z,0
2016-09-27T00:36:06.737Z,0
2016-09-27T00:37:06.758Z,0
2016-09-27T00:38:36.626Z,0
2016-09-27T00:39:06.828Z,0
2016-09-27T00:40:06.827Z,0
2016-09-27T00:43:06.884Z,0
2016-09-27T00:44:06.928Z,0
2016-09-27T00:45:21.861Z,0
2016-09-27T00:46:06.973Z,0
2016-09-27T00:47:22.003Z,0
2016-09-27T00:48:07.007Z,0
2016-09-27T00:49:07.328Z,0
2016-09-27T00:50:07.046Z,0
2016-09-27T00:51:07.069Z,0
2016-09-27T00:52:07.097Z,0
2016-09-27T00:53:22.037Z,0
2016-09-27T00:54:07.138Z,0
2016-09-27T00:55:07.168Z,0
2016-09-27T00:56:07.189Z,0
2016-09-27T00:57:07.504Z,0
2016-09-27T00:58:07.233Z,0
2016-09-27T00:59:07.246Z,0
2016-09-27T01:01:07.295Z,0
2016-09-27T01:02:07.316Z,0
2016-09-27T01:03:07.338Z,0
2016-09-27T01:04:07.401Z,0
2016-09-27T01:05:07.708Z,0
2016-09-27T01:06:07.424Z,0
2016-09-27T01:07:07.736Z,0
2016-09-27T01:08:07.472Z,0
2016-09-27T01:09:07.477Z,0
2016-09-27T01:10:07.492Z,0
2016-09-27T01:11:07.519Z,0
2016-09-27T01:12:07.536Z,0
2016-09-27T01:13:22.487Z,0
2016-09-27T01:14:07.588Z,0
2016-09-27T01:15:07.669Z,0
2016-09-27T01:16:07.879Z,0
2016-09-27T01:17:07.661Z,0
2016-09-27T01:18:07.675Z,0
2016-09-27T01:20:07.723Z,0
2016-09-27T01:21:07.742Z,0
2016-09-27T01:22:07.764Z,0
2016-09-27T01:23:07.792Z,0
2016-09-27T01:24:07.821Z,0
2016-09-27T01:25:22.806Z,0
2016-09-27T01:26:07.857Z,0
2016-09-27T01:27:07.882Z,0
2016-09-27T01:28:22.816Z,0
2016-09-27T01:29:07.969Z,0
2016-09-27T01:30:07.941Z,0
2016-09-27T01:31:07.959Z,0
2016-09-27T01:32:22.908Z,0
2016-09-27T01:33:08.008Z,0
2016-09-27T01:34:23.006Z,0
2016-09-27T01:35:08.061Z,0
2016-09-27T01:36:23.003Z,0
2016-09-27T01:37:23.024Z,0
2016-09-27T01:38:23.040Z,0
2016-09-27T01:39:23.069Z,0
2016-09-27T01:40:08.161Z,0
2016-09-27T01:41:38.033Z,0
2016-09-27T01:42:23.125Z,0
2016-09-27T01:43:08.230Z,0
2016-09-27T01:44:08.246Z,0
2016-09-27T01:45:08.280Z,0
2016-09-27T01:46:08.299Z,0
2016-09-27T01:47:23.247Z,0
2016-09-27T01:48:08.334Z,0
2016-09-27T01:49:08.362Z,0
2016-09-27T01:50:08.390Z,0
2016-09-27T01:51:08.409Z,0
2016-09-27T01:52:08.421Z,0
2016-09-27T01:53:23.386Z,0
2016-09-27T01:54:08.479Z,0
2016-09-27T01:55:23.427Z,0
2016-09-27T01:56:08.512Z,0
2016-09-27T01:57:23.455Z,0
2016-09-27T01:58:08.612Z,0
2016-09-27T01:59:23.501Z,0
2016-09-27T02:00:08.605Z,0
2016-09-27T02:01:08.633Z,0
2016-09-27T02:02:08.651Z,0
2016-09-27T02:04:08.693Z,0
2016-09-27T02:05:08.718Z,0
2016-09-27T02:06:08.731Z,0
2016-09-27T02:07:08.779Z,0
2016-09-27T02:08:08.828Z,0
2016-09-27T02:09:08.957Z,0
2016-09-27T02:10:08.826Z,0
2016-09-27T02:11:08.845Z,0
2016-09-27T02:12:08.881Z,0
2016-09-27T02:13:23.813Z,0
2016-09-27T02:14:08.961Z,0
2016-09-27T02:15:23.857Z,0
2016-09-27T02:16:08.958Z,0
2016-09-27T02:17:08.971Z,0
2016-09-27T02:18:23.924Z,0
2016-09-27T02:19:23.940Z,0
2016-09-27T02:20:23.961Z,0
2016-09-27T02:21:09.058Z,0
2016-09-27T02:22:09.085Z,0
2016-09-27T02:23:09.118Z,0
2016-09-27T02:24:09.186Z,0
2016-09-27T02:25:38.999Z,0
2016-09-27T02:26:24.093Z,0
2016-09-27T02:27:09.502Z,0
2016-09-27T02:28:24.188Z,0
2016-09-27T02:29:09.244Z,0
2016-09-27T02:30:09.259Z,0
2016-09-27T02:31:24.198Z,0
2016-09-27T02:32:09.297Z,0
2016-09-27T02:33:24.249Z,0
2016-09-27T02:34:09.338Z,0
2016-09-27T02:36:09.397Z,0
2016-09-27T02:37:09.410Z,0
2016-09-27T02:38:09.432Z,0
2016-09-27T02:39:09.461Z,0
2016-09-27T02:40:24.400Z,0
2016-09-27T02:41:39.348Z,0
2016-09-27T02:43:09.535Z,0
2016-09-27T02:44:09.560Z,0
2016-09-27T02:45:09.895Z,0
2016-09-27T02:47:09.631Z,0
2016-09-27T02:48:09.663Z,0
2016-09-27T02:49:09.675Z,0
2016-09-27T02:50:09.698Z,0
2016-09-27T02:51:09.714Z,0
2016-09-27T02:52:24.657Z,0
2016-09-27T02:53:09.764Z,0
2016-09-27T02:54:09.791Z,0
2016-09-27T02:55:24.729Z,0
2016-09-27T02:56:09.877Z,0
2016-09-27T02:57:09.848Z,0
2016-09-27T02:58:24.800Z,0
2016-09-27T02:59:09.887Z,0
2016-09-27T03:00:24.835Z,0
2016-09-27T03:01:09.937Z,0
2016-09-27T03:02:09.953Z,0
2016-09-27T03:03:10.275Z,0
2016-09-27T03:04:09.998Z,0
2016-09-27T03:05:10.013Z,0
2016-09-27T03:06:10.042Z,0
2016-09-27T03:07:10.066Z,0
2016-09-27T03:08:10.145Z,0
2016-09-27T03:09:10.106Z,0
2016-09-27T03:10:10.132Z,0
2016-09-27T03:11:10.156Z,0
2016-09-27T03:12:10.176Z,0
2016-09-27T03:13:10.187Z,0
2016-09-27T03:14:10.225Z,0
2016-09-27T03:16:40.104Z,0
2016-09-27T03:17:10.584Z,0
2016-09-27T03:18:10.302Z,0
2016-09-27T03:20:10.350Z,0
2016-09-27T03:21:10.369Z,0
2016-09-27T03:22:10.385Z,0
2016-09-27T03:23:10.470Z,0
2016-09-27T03:24:10.428Z,0
2016-09-27T03:26:10.488Z,0
2016-09-27T03:27:10.495Z,0
2016-09-27T03:28:10.572Z,0
2016-09-27T03:30:10.567Z,0
2016-09-27T03:31:25.515Z,0
2016-09-27T03:32:25.535Z,0
2016-09-27T03:33:25.556Z,0
2016-09-27T03:34:10.655Z,0
2016-09-27T03:35:25.595Z,0
2016-09-27T03:36:10.687Z,0
2016-09-27T03:37:10.715Z,0
2016-09-27T03:38:10.740Z,0
2016-09-27T03:39:10.760Z,0
2016-09-27T03:40:10.783Z,0
2016-09-27T03:41:10.804Z,0
2016-09-27T03:42:10.836Z,0
2016-09-27T03:43:10.847Z,0
2016-09-27T03:44:10.863Z,0
2016-09-27T03:45:10.895Z,0
2016-09-27T03:46:25.831Z,0
2016-09-27T03:47:10.930Z,0
2016-09-27T03:48:25.878Z,0
2016-09-27T03:49:25.903Z,0
2016-09-27T03:50:11.045Z,0
2016-09-27T03:51:11.018Z,0
2016-09-27T03:52:11.039Z,0
2016-09-27T03:53:11.056Z,0
2016-09-27T03:54:11.087Z,0
2016-09-27T03:56:11.124Z,0
2016-09-27T03:57:11.156Z,0
2016-09-27T03:59:26.117Z,0
2016-09-27T04:00:26.127Z,0
2016-09-27T04:02:26.176Z,0
2016-09-27T04:03:26.203Z,0
2016-09-27T04:04:11.307Z,0
2016-09-27T04:05:11.316Z,0
2016-09-27T04:06:11.652Z,0
2016-09-27T04:07:11.367Z,0
2016-09-27T04:08:26.307Z,0
2016-09-27T04:09:11.417Z,0
2016-09-27T04:10:11.435Z,0
2016-09-27T04:11:11.462Z,0
2016-09-27T04:12:11.478Z,0
2016-09-27T04:13:11.490Z,0
2016-09-27T04:14:26.440Z,0
2016-09-27T04:15:11.546Z,0
2016-09-27T04:16:11.577Z,0
2016-09-27T04:17:26.508Z,0
2016-09-27T04:18:26.518Z,0
2016-09-27T04:19:11.669Z,0
2016-09-27T04:20:11.654Z,0
2016-09-27T04:21:12.019Z,0
2016-09-27T04:22:11.688Z,0
2016-09-27T04:23:11.708Z,0
2016-09-27T04:24:11.726Z,0
2016-09-27T04:25:11.754Z,0
2016-09-27T04:26:11.782Z,0
2016-09-27T04:27:26.715Z,0
2016-09-27T04:29:11.880Z,0
2016-09-27T04:30:11.856Z,0
2016-09-27T04:31:11.884Z,0
2016-09-27T04:32:11.898Z,0
2016-09-27T04:33:11.922Z,0
2016-09-27T04:34:11.944Z,0
2016-09-27T04:35:26.889Z,0
2016-09-27T04:36:11.985Z,0
2016-09-27T04:37:12.009Z,0
2016-09-27T04:38:12.031Z,0
2016-09-27T04:39:12.294Z,0
2016-09-27T04:40:12.091Z,0
2016-09-27T04:41:12.094Z,0
2016-09-27T04:42:12.415Z,0
2016-09-27T04:43:12.286Z,0
2016-09-27T04:44:12.163Z,0
2016-09-27T04:45:12.173Z,0
2016-09-27T04:46:12.201Z,0
2016-09-27T04:47:12.223Z,0
2016-09-27T04:49:12.257Z,0
2016-09-27T04:50:12.289Z,0
2016-09-27T04:51:27.228Z,0
2016-09-27T04:52:27.250Z,5
2016-09-27T04:53:27.267Z,5
2016-09-27T04:54:12.377Z,5
2016-09-27T04:55:12.387Z,5
2016-09-27T04:56:12.404Z,5
2016-09-27T04:57:12.430Z,5
2016-09-27T04:58:12.510Z,5
2016-09-27T04:59:12.468Z,5
2016-09-27T05:00:12.502Z,5
2016-09-27T05:01:27.441Z,5
2016-09-27T05:02:12.548Z,5
2016-09-27T05:03:27.485Z,5
2016-09-27T05:04:12.581Z,5
2016-09-27T05:05:12.606Z,10
2016-09-27T05:06:27.547Z,10
2016-09-27T05:07:27.564Z,10
2016-09-27T05:08:12.678Z,10
2016-09-27T05:09:12.687Z,10
2016-09-27T05:10:12.714Z,15
2016-09-27T05:11:12.743Z,15
2016-09-27T05:12:12.756Z,20
2016-09-27T05:13:12.773Z,20
2016-09-27T05:14:12.799Z,25
2016-09-27T05:15:12.811Z,25
2016-09-27T05:16:12.834Z,25
2016-09-27T05:17:12.855Z,30
2016-09-27T05:18:12.874Z,30
2016-09-27T05:19:12.903Z,30
2016-09-27T05:20:12.921Z,35
2016-09-27T05:21:12.952Z,40
2016-09-27T05:22:13.124Z,40
2016-09-27T05:23:27.916Z,45
2016-09-27T05:24:27.931Z,45
2016-09-27T05:25:13.039Z,45
2016-09-27T05:26:13.098Z,45
2016-09-27T05:27:13.078Z,50
2016-09-27T05:28:13.092Z,50
2016-09-27T05:29:13.116Z,50
2016-09-27T05:30:28.060Z,55
2016-09-27T05:31:28.080Z,55
2016-09-27T05:32:28.108Z,55
2016-09-27T05:34:13.226Z,55
2016-09-27T05:35:13.402Z,60
2016-09-27T05:36:13.275Z,60
2016-09-27T05:39:13.334Z,65
2016-09-27T05:40:28.574Z,65
2016-09-27T05:41:13.378Z,65
2016-09-27T05:42:13.400Z,65
2016-09-27T05:43:13.419Z,70
2016-09-27T05:44:13.444Z,70
2016-09-27T05:45:13.470Z,70
2016-09-27T05:46:28.420Z,75
2016-09-27T05:47:13.509Z,70
2016-09-27T05:48:13.527Z,85
2016-09-27T05:49:28.799Z,155
2016-09-27T05:51:13.590Z,205
2016-09-27T05:52:13.615Z,210
2016-09-27T05:53:13.640Z,210
2016-09-27T05:54:43.508Z,225
2016-09-27T05:55:28.609Z,235
2016-09-27T05:56:28.635Z,245
2016-09-27T05:57:28.649Z,250
2016-09-27T05:58:13.857Z,265
2016-09-27T05:59:13.779Z,290
2016-09-27T06:00:13.806Z,365
2016-09-27T06:01:13.834Z,670
2016-09-27T06:02:13.860Z,1100
2016-09-27T06:03:13.894Z,1090
2016-09-27T06:04:28.825Z,1085
2016-09-27T06:05:13.931Z,945
2016-09-27T06:06:13.957Z,735
2016-09-27T06:07:13.975Z,800
2016-09-27T06:08:14.007Z,875
2016-09-27T06:09:43.876Z,810
2016-09-27T06:10:43.903Z,820
2016-09-27T06:12:14.163Z,845
2016-09-27T06:13:14.137Z,870
2016-09-27T06:14:14.164Z,890
2016-09-27T06:15:14.190Z,890
2016-09-27T06:16:14.219Z,850
2016-09-27T06:17:14.243Z,875
2016-09-27T06:18:29.189Z,905
2016-09-27T06:19:14.302Z,905
2016-09-27T06:20:14.378Z,910
2016-09-27T06:21:29.274Z,920
2016-09-27T06:22:14.431Z,925
2016-09-27T06:23:29.332Z,905
2016-09-27T06:24:29.366Z,920
2016-09-27T06:25:29.385Z,940
2016-09-27T06:26:29.412Z,985
2016-09-27T06:27:14.527Z,990
2016-09-27T06:28:14.546Z,985
2016-09-27T06:29:14.600Z,990
2016-09-27T06:30:44.457Z,965
2016-09-27T06:31:14.640Z,1010
2016-09-27T06:32:14.664Z,1060
2016-09-27T06:33:14.695Z,1030
2016-09-27T06:34:14.741Z,1100
2016-09-27T06:35:14.756Z,1110
2016-09-27T06:36:14.788Z,1055
2016-09-27T06:37:29.739Z,1045
2016-09-27T06:38:29.774Z,1070
2016-09-27T06:39:44.726Z,1110
2016-09-27T06:40:14.911Z,1105
2016-09-27T06:42:14.633Z,1070
2016-09-27T06:42:23.233Z,1060
2016-09-27T06:43:38.175Z,1060
2016-09-27T06:44:38.206Z,1070
2016-09-27T06:45:23.319Z,1080
2016-09-27T06:47:23.043Z,1065
2016-09-27T06:47:46.563Z,1045
2016-09-27T06:48:46.599Z,1015
2016-09-27T06:49:31.697Z,965
2016-09-27T06:50:31.721Z,995
2016-09-27T06:51:46.685Z,975
2016-09-27T06:52:31.787Z,1000
2016-09-27T06:54:31.855Z,1070
2016-09-27T06:57:31.948Z,1140
2016-09-27T06:58:31.989Z,1145
2016-09-27T06:59:32.011Z,1150
2016-09-27T07:00:32.042Z,1130
2016-09-27T07:01:32.071Z,1090
2016-09-27T07:02:32.113Z,1075
2016-09-27T07:03:32.144Z,1060
2016-09-27T07:04:32.167Z,1065
2016-09-27T07:05:32.207Z,1105
2016-09-27T07:06:32.236Z,1060
2016-09-27T07:07:32.269Z,1030
2016-09-27T07:08:32.300Z,1030
2016-09-27T07:09:32.325Z,1050
2016-09-27T07:10:32.357Z,1055
2016-09-27T07:11:32.388Z,1060
2016-09-27T07:12:32.423Z,1035
2016-09-27T07:13:32.458Z,1030
2016-09-27T07:14:32.500Z,1090
2016-09-27T07:15:47.444Z,1060
2016-09-27T07:16:32.557Z,1020
2016-09-27T07:17:47.504Z,1055
2016-09-27T07:18:32.618Z,1080
2016-09-27T07:19:32.651Z,945
2016-09-27T07:20:47.594Z,540
2016-09-27T07:21:32.718Z,345
2016-09-27T07:22:32.740Z,310
2016-09-27T07:23:32.780Z,305
2016-09-27T07:24:32.803Z,310
2016-09-27T07:25:32.833Z,310
2016-09-27T07:26:32.870Z,310
2016-09-27T07:27:32.901Z,310
2016-09-27T07:28:32.926Z,310
2016-09-27T07:29:32.977Z,310
2016-09-27T07:30:32.993Z,310
2016-09-27T07:31:33.022Z,310
2016-09-27T07:32:47.983Z,310
2016-09-27T07:33:33.094Z,310
2016-09-27T07:34:33.122Z,315
2016-09-27T07:36:03.002Z,315
2016-09-27T07:36:48.114Z,315
2016-09-27T07:37:33.221Z,315
2016-09-27T07:38:33.263Z,315
2016-09-27T07:39:33.279Z,315
2016-09-27T07:40:33.308Z,310
2016-09-27T07:41:33.355Z,310
2016-09-27T07:42:33.381Z,305
2016-09-27T07:43:33.501Z,305
2016-09-27T07:44:33.434Z,305
2016-09-27T07:45:33.467Z,305
2016-09-27T07:46:33.497Z,305
2016-09-27T07:47:33.826Z,305
2016-09-27T07:48:33.559Z,305
2016-09-27T07:49:33.898Z,305
2016-09-27T07:50:33.624Z,305
2016-09-27T07:51:48.842Z,305
2016-09-27T07:52:48.612Z,300
2016-09-27T07:53:33.715Z,300
2016-09-27T07:54:33.754Z,300
2016-09-27T07:55:48.703Z,300
2016-09-27T07:56:33.823Z,305
2016-09-27T07:57:33.839Z,300
2016-09-27T07:58:33.859Z,300
2016-09-27T07:59:33.909Z,300
2016-09-27T08:00:33.940Z,305
2016-09-27T08:01:33.963Z,300
2016-09-27T08:03:48.943Z,295
2016-09-27T08:04:34.066Z,295
2016-09-27T08:05:49.011Z,295
2016-09-27T08:06:34.213Z,300
2016-09-27T08:07:34.147Z,305
2016-09-27T08:08:49.104Z,305
2016-09-27T08:09:34.457Z,310
2016-09-27T08:10:34.237Z,310
2016-09-27T08:11:34.268Z,320
2016-09-27T08:12:34.303Z,320
2016-09-27T08:14:34.352Z,330
2016-09-27T08:15:49.622Z,345
2016-09-27T08:16:49.347Z,365
2016-09-27T08:17:34.455Z,380
2016-09-27T08:18:49.676Z,405
2016-09-27T08:19:34.521Z,425
2016-09-27T08:20:49.473Z,440
2016-09-27T08:21:34.574Z,450
2016-09-27T08:23:49.569Z,530
2016-09-27T08:24:34.676Z,555
2016-09-27T08:26:04.547Z,585
2016-09-27T08:26:34.738Z,595
2016-09-27T08:27:34.768Z,605
2016-09-27T08:28:34.790Z,615
2016-09-27T08:29:35.130Z,635
2016-09-27T08:30:34.865Z,645
2016-09-27T08:31:49.812Z,650
2016-09-27T08:32:34.911Z,650
2016-09-27T08:33:35.351Z,660
2016-09-27T08:34:34.971Z,650
2016-09-27T08:35:35.003Z,655
2016-09-27T08:36:35.031Z,645
2016-09-27T08:37:35.074Z,635
2016-09-27T08:38:35.114Z,645
2016-09-27T08:40:50.086Z,615
2016-09-27T08:41:35.192Z,610
2016-09-27T08:42:35.217Z,600
2016-09-27T08:43:35.254Z,590
2016-09-27T08:44:35.290Z,575
2016-09-27T08:45:35.306Z,570
2016-09-27T08:46:35.348Z,560
2016-09-27T08:47:35.371Z,550
2016-09-27T08:48:35.415Z,550
2016-09-27T08:49:50.360Z,555
2016-09-27T08:50:35.462Z,535
2016-09-27T08:51:35.503Z,525
2016-09-27T08:52:35.522Z,515
2016-09-27T08:53:35.552Z,510
2016-09-27T08:54:35.591Z,510
2016-09-27T08:56:05.486Z,490
2016-09-27T08:56:35.658Z,490
2016-09-27T08:57:35.685Z,480
2016-09-27T08:58:35.713Z,475
2016-09-27T08:59:50.676Z,465
2016-09-27T09:00:50.943Z,460
2016-09-27T09:01:35.798Z,455
2016-09-27T09:02:35.833Z,455
2016-09-27T09:03:35.860Z,450
2016-09-27T09:04:35.894Z,450
2016-09-27T09:05:35.924Z,450
2016-09-27T09:06:50.879Z,445
2016-09-27T09:07:35.986Z,445
2016-09-27T09:08:36.013Z,445
2016-09-27T09:09:36.039Z,445
2016-09-27T09:10:36.082Z,435
2016-09-27T09:11:51.034Z,435
2016-09-27T09:12:36.136Z,435
2016-09-27T09:13:36.163Z,425
2016-09-27T09:14:36.244Z,420
2016-09-27T09:15:36.232Z,410
2016-09-27T09:16:36.258Z,420
2016-09-27T09:17:36.291Z,435
2016-09-27T09:19:51.273Z,435
2016-09-27T09:20:36.385Z,440
2016-09-27T09:21:36.422Z,430
2016-09-27T09:22:36.442Z,435
2016-09-27T09:23:51.451Z,430
2016-09-27T09:24:51.427Z,425
2016-09-27T09:25:36.625Z,420
2016-09-27T09:27:06.414Z,415
2016-09-27T09:27:51.514Z,415
2016-09-27T09:28:51.551Z,400
2016-09-27T09:29:36.654Z,395
2016-09-27T09:30:36.692Z,390
2016-09-27T09:31:36.710Z,385
2016-09-27T09:32:36.747Z,370
2016-09-27T09:33:36.770Z,355
2016-09-27T09:34:36.805Z,340
2016-09-27T09:35:36.845Z,325
2016-09-27T09:36:36.863Z,300
2016-09-27T09:37:36.897Z,290
2016-09-27T09:38:36.929Z,270
2016-09-27T09:39:36.955Z,260
2016-09-27T09:40:51.905Z,260
2016-09-27T09:41:37.037Z,255
2016-09-27T09:42:37.051Z,250
2016-09-27T09:43:52.007Z,250
2016-09-27T09:44:37.112Z,250
2016-09-27T09:45:37.146Z,250
2016-09-27T09:46:37.173Z,250
2016-09-27T09:47:37.200Z,250
2016-09-27T09:48:37.237Z,245
2016-09-27T09:49:37.262Z,245
2016-09-27T09:50:37.293Z,245
2016-09-27T09:51:37.325Z,245
2016-09-27T09:52:37.358Z,245
2016-09-27T09:53:37.380Z,245
2016-09-27T09:54:52.337Z,245
2016-09-27T09:55:37.444Z,245
2016-09-27T09:56:37.477Z,240
2016-09-27T09:57:37.505Z,245
2016-09-27T09:58:52.460Z,250
2016-09-27T09:59:52.490Z,245
2016-09-27T10:00:37.601Z,245
2016-09-27T10:01:52.552Z,245
2016-09-27T10:02:37.670Z,240
2016-09-27T10:03:37.684Z,240
2016-09-27T10:04:37.722Z,240
2016-09-27T10:05:37.747Z,240
2016-09-27T10:06:52.706Z,240
2016-09-27T10:07:37.806Z,240
2016-09-27T10:08:37.830Z,235
2016-09-27T10:09:37.870Z,235
2016-09-27T10:10:52.819Z,235
2016-09-27T10:11:37.922Z,230
2016-09-27T10:12:37.958Z,230
2016-09-27T10:13:37.988Z,230
2016-09-27T10:14:52.939Z,225
2016-09-27T10:15:38.053Z,225
2016-09-27T10:16:38.072Z,220
2016-09-27T10:17:38.110Z,220
2016-09-27T10:18:38.135Z,215
2016-09-27T10:19:38.160Z,210
2016-09-27T10:20:38.203Z,210
2016-09-27T10:21:38.226Z,205
2016-09-27T10:22:38.254Z,210
2016-09-27T10:23:38.287Z,205
2016-09-27T10:24:38.319Z,205
2016-09-27T10:25:38.342Z,205
2016-09-27T10:26:38.367Z,200
2016-09-27T10:27:38.404Z,195
2016-09-27T10:28:38.720Z,195
2016-09-27T10:29:38.460Z,190
2016-09-27T10:30:53.403Z,185
2016-09-27T10:31:38.516Z,185
2016-09-27T10:32:38.551Z,180
2016-09-27T10:33:38.565Z,180
2016-09-27T10:34:38.600Z,175
2016-09-27T10:35:38.628Z,175
2016-09-27T10:36:38.662Z,170
2016-09-27T10:38:38.716Z,165
2016-09-27T10:39:39.154Z,165
2016-09-27T10:40:38.770Z,160
2016-09-27T10:41:38.789Z,155
2016-09-27T10:42:38.826Z,155
2016-09-27T10:44:08.708Z,150
2016-09-27T10:44:38.890Z,150
2016-09-27T10:45:53.832Z,145
2016-09-27T10:46:53.865Z,145
2016-09-27T10:47:38.965Z,140
2016-09-27T10:49:39.025Z,140
2016-09-27T10:50:39.055Z,135
2016-09-27T10:51:39.079Z,135
2016-09-27T10:52:39.105Z,135
2016-09-27T10:53:39.137Z,135
2016-09-27T10:54:39.166Z,135
2016-09-27T10:55:39.487Z,130
2016-09-27T10:56:54.455Z,130
2016-09-27T10:57:39.245Z,130
2016-09-27T10:58:39.281Z,130
2016-09-27T10:59:54.234Z,130
2016-09-27T11:00:39.327Z,130
2016-09-27T11:01:39.361Z,130
2016-09-27T11:02:54.318Z,130
2016-09-27T11:03:39.462Z,130
2016-09-27T11:04:39.757Z,130
2016-09-27T11:05:39.477Z,130
2016-09-27T11:06:54.423Z,130
2016-09-27T11:07:39.548Z,125
2016-09-27T11:08:39.552Z,125
2016-09-27T11:09:39.587Z,125
2016-09-27T11:10:39.607Z,130
2016-09-27T11:11:39.632Z,125
2016-09-27T11:12:39.662Z,125
2016-09-27T11:13:39.692Z,125
2016-09-27T11:14:54.643Z,125
2016-09-27T11:16:09.599Z,125
2016-09-27T11:16:54.695Z,125
2016-09-27T11:17:39.815Z,125
2016-09-27T11:18:54.749Z,125
2016-09-27T11:19:54.780Z,125
2016-09-27T11:20:39.882Z,130
2016-09-27T11:21:39.908Z,130
2016-09-27T11:22:39.933Z,130
2016-09-27T11:23:54.890Z,130
2016-09-27T11:24:39.996Z,130
2016-09-27T11:25:54.970Z,130
2016-09-27T11:26:40.049Z,130
2016-09-27T11:27:40.073Z,130
2016-09-27T11:28:40.104Z,130
2016-09-27T11:29:40.129Z,130
2016-09-27T11:30:40.163Z,130
2016-09-27T11:31:40.199Z,130
2016-09-27T11:32:40.215Z,130
2016-09-27T11:33:55.166Z,130
2016-09-27T11:34:40.268Z,130
2016-09-27T11:36:40.320Z,130
2016-09-27T11:37:55.276Z,130
2016-09-27T11:38:40.381Z,130
2016-09-27T11:39:40.419Z,130
2016-09-27T11:40:40.429Z,130
2016-09-27T11:41:40.467Z,130
2016-09-27T11:42:40.493Z,130
2016-09-27T11:43:40.496Z,130
2016-09-27T11:44:55.491Z,130
2016-09-27T11:45:40.593Z,130
2016-09-27T11:47:10.448Z,130
2016-09-27T11:47:40.630Z,130
2016-09-27T11:48:40.648Z,130
2016-09-27T11:49:40.680Z,130
2016-09-27T11:51:40.977Z,135
2016-09-27T11:52:40.780Z,135
2016-09-27T11:54:40.802Z,135
2016-09-27T11:55:40.844Z,135
2016-09-27T11:56:40.870Z,135
2016-09-27T11:57:40.894Z,135
2016-09-27T11:58:40.933Z,135
2016-09-27T11:59:41.044Z,135
2016-09-27T12:00:40.971Z,135
2016-09-27T12:02:41.033Z,135
2016-09-27T12:03:41.063Z,130
2016-09-27T12:04:41.098Z,130
2016-09-27T12:05:56.045Z,135
2016-09-27T12:06:56.177Z,135
2016-09-27T12:07:41.165Z,135
2016-09-27T12:08:41.195Z,135
2016-09-27T12:09:41.228Z,135
2016-09-27T12:10:56.176Z,135
2016-09-27T12:11:41.278Z,135
2016-09-27T12:12:56.227Z,130
2016-09-27T12:13:41.623Z,135
2016-09-27T12:14:41.360Z,130
2016-09-27T12:15:41.386Z,130
2016-09-27T12:16:41.711Z,130
2016-09-27T12:17:41.744Z,135
2016-09-27T12:18:56.396Z,135
2016-09-27T12:19:56.416Z,135
2016-09-27T12:21:56.481Z,135
2016-09-27T12:22:41.875Z,135
2016-09-27T12:23:41.858Z,135
2016-09-27T12:24:41.635Z,135
2016-09-27T12:25:41.856Z,135
2016-09-27T12:26:41.689Z,135
2016-09-27T12:27:41.707Z,135
2016-09-27T12:29:41.773Z,135
2016-09-27T12:30:41.793Z,135
2016-09-27T12:31:41.825Z,135
2016-09-27T12:32:41.840Z,135
2016-09-27T12:33:57.093Z,135
2016-09-27T12:34:56.824Z,135
2016-09-27T12:35:56.850Z,135
2016-09-27T12:36:42.108Z,135
2016-09-27T12:37:57.013Z,135
2016-09-27T12:38:42.002Z,135
2016-09-27T12:39:42.043Z,135
2016-09-27T12:40:56.993Z,135
2016-09-27T12:41:42.095Z,135
2016-09-27T12:42:57.045Z,135
2016-09-27T12:44:26.919Z,135
2016-09-27T12:44:42.185Z,135
2016-09-27T12:45:42.204Z,135
2016-09-27T12:47:42.263Z,135
2016-09-27T12:48:42.282Z,135
2016-09-27T12:49:57.237Z,135
2016-09-27T12:50:57.263Z,135
2016-09-27T12:51:42.371Z,135
2016-09-27T12:52:42.393Z,135
2016-09-27T12:53:57.345Z,135
2016-09-27T12:54:42.451Z,135
2016-09-27T12:55:42.489Z,135
2016-09-27T12:56:42.498Z,135
2016-09-27T12:57:42.538Z,135
2016-09-27T12:58:42.555Z,135
2016-09-27T12:59:42.597Z,135
2016-09-27T13:00:42.612Z,135
2016-09-27T13:01:42.631Z,135
2016-09-27T13:02:42.663Z,135
2016-09-27T13:03:42.694Z,135
2016-09-27T13:04:57.633Z,135
2016-09-27T13:05:57.667Z,135
2016-09-27T13:06:42.779Z,135
2016-09-27T13:07:57.721Z,135
2016-09-27T13:08:57.748Z,135
2016-09-27T13:10:42.880Z,135
2016-09-27T13:11:42.909Z,135
2016-09-27T13:12:42.928Z,135
2016-09-27T13:13:42.964Z,135
2016-09-27T13:14:42.999Z,135
2016-09-27T13:15:43.019Z,135
2016-09-27T13:16:43.041Z,135
2016-09-27T13:17:43.074Z,135
2016-09-27T13:18:43.109Z,135
2016-09-27T13:19:43.125Z,140
2016-09-27T13:20:43.145Z,140
2016-09-27T13:21:58.105Z,140
2016-09-27T13:22:58.137Z,135
2016-09-27T13:23:43.238Z,135
2016-09-27T13:24:43.271Z,135
2016-09-27T13:25:58.212Z,135
2016-09-27T13:26:58.255Z,135
2016-09-27T13:27:43.346Z,135
2016-09-27T13:28:43.675Z,135
2016-09-27T13:29:43.409Z,135
2016-09-27T13:30:43.427Z,135
2016-09-27T13:31:43.456Z,135
2016-09-27T13:32:43.481Z,135
2016-09-27T13:33:43.525Z,135
2016-09-27T13:34:43.528Z,135
2016-09-27T13:35:43.560Z,135
2016-09-27T13:36:43.602Z,135
2016-09-27T13:37:43.916Z,130
2016-09-27T13:38:58.567Z,130
2016-09-27T13:39:43.676Z,130
2016-09-27T13:40:58.625Z,130
2016-09-27T13:41:58.647Z,130
2016-09-27T13:42:58.679Z,130
2016-09-27T13:43:43.780Z,130
2016-09-27T13:44:43.809Z,130
2016-09-27T13:45:43.835Z,130
2016-09-27T13:46:43.861Z,130
2016-09-27T13:47:43.889Z,130
2016-09-27T13:48:43.914Z,130
2016-09-27T13:50:58.890Z,130
2016-09-27T13:51:43.997Z,130
2016-09-27T13:52:58.963Z,130
2016-09-27T13:53:44.060Z,130
2016-09-27T13:54:44.082Z,130
2016-09-27T13:56:59.079Z,130
2016-09-27T13:57:44.160Z,125
2016-09-27T13:58:44.187Z,125
2016-09-27T13:59:44.210Z,125
2016-09-27T14:00:44.239Z,125
2016-09-27T14:01:44.268Z,125
2016-09-27T14:02:44.296Z,125
2016-09-27T14:03:44.327Z,125
2016-09-27T14:04:44.345Z,125
2016-09-27T14:05:44.381Z,125
2016-09-27T14:06:44.699Z,125
2016-09-27T14:07:44.442Z,125
2016-09-27T14:08:44.453Z,125
2016-09-27T14:09:44.491Z,125
2016-09-27T14:10:44.828Z,125
2016-09-27T14:12:29.313Z,125
2016-09-27T14:13:14.418Z,130
2016-09-27T14:13:44.594Z,125
2016-09-27T14:14:44.628Z,120
2016-09-27T14:15:59.581Z,120
2016-09-27T14:16:44.674Z,120
2016-09-27T14:17:44.719Z,120
2016-09-27T14:18:44.739Z,120
2016-09-27T14:19:44.761Z,120
2016-09-27T14:20:59.715Z,120
2016-09-27T14:21:59.741Z,120
2016-09-27T14:22:44.849Z,120
2016-09-27T14:23:44.875Z,120
2016-09-27T14:24:44.890Z,120
2016-09-27T14:25:59.855Z,120
2016-09-27T14:26:44.946Z,120
2016-09-27T14:27:44.974Z,120
2016-09-27T14:28:59.931Z,120
2016-09-27T14:29:45.032Z,120
2016-09-27T14:30:45.057Z,120
2016-09-27T14:31:45.091Z,120
2016-09-27T14:32:45.120Z,120
2016-09-27T14:33:45.142Z,120
2016-09-27T14:34:45.172Z,120
2016-09-27T14:36:00.117Z,115
2016-09-27T14:36:45.221Z,115
2016-09-27T14:37:45.503Z,115
2016-09-27T14:38:45.288Z,115
2016-09-27T14:39:45.607Z,115
2016-09-27T14:41:00.254Z,115
2016-09-27T14:41:45.360Z,115
2016-09-27T14:42:45.696Z,115
2016-09-27T14:44:15.261Z,115
2016-09-27T14:44:45.436Z,115
2016-09-27T14:46:45.492Z,110
2016-09-27T14:47:45.525Z,110
2016-09-27T14:48:45.570Z,110
2016-09-27T14:49:45.578Z,110
2016-09-27T14:50:45.604Z,110
2016-09-27T14:51:45.633Z,110